createdAt,value
2022-11-10T00:04:28.869Z,76.10
2022-11-10T00:10:08.511Z,76.45
2022-11-10T00:16:06.714Z,75.98
2022-11-10T00:21:46.122Z,75.95
2022-11-10T00:27:25.287Z,76.19
2022-11-10T00:33:04.968Z,75.99
2022-11-10T00:38:44.289Z,76.62
2022-11-10T00:44:23.468Z,76.61
2022-11-10T00:50:02.853Z,76.29
2022-11-10T00:55:42.300Z,76.45
2022-11-10T01:01:24.331Z,76.50
2022-11-10T01:07:04.228Z,76.39
2022-11-10T01:12:44.005Z,76.75
2022-11-10T01:18:23.486Z,76.69
2022-11-10T01:24:03.188Z,76.75
2022-11-10T01:29:42.755Z,76.46
2022-11-10T01:35:22.250Z,76.62
2022-11-10T01:41:02.234Z,76.83
2022-11-10T01:46:41.677Z,76.32
2022-11-10T01:52:21.393Z,76.64
2022-11-10T01:58:00.685Z,76.66
2022-11-10T02:03:46.216Z,76.74
2022-11-10T02:09:25.568Z,76.62
2022-11-10T02:15:06.276Z,76.60
2022-11-10T02:20:45.841Z,76.34
2022-11-10T02:26:29.237Z,76.59
2022-11-10T02:32:08.890Z,76.58
2022-11-10T02:37:48.519Z,76.86
2022-11-10T02:43:28.600Z,76.41
2022-11-10T02:49:08.223Z,76.58
2022-11-10T02:54:47.833Z,76.94
2022-11-10T03:00:27.013Z,77.28
2022-11-10T03:06:06.399Z,76.82
2022-11-10T03:11:45.734Z,77.04
2022-11-10T03:17:25.679Z,76.74
2022-11-10T03:23:05.711Z,76.17
2022-11-10T03:28:45.188Z,76.43
2022-11-10T03:34:27.031Z,76.76
2022-11-10T03:40:10.166Z,76.24
2022-11-10T03:45:49.316Z,76.13
2022-11-10T03:51:28.699Z,76.42
2022-11-10T03:57:07.849Z,77.09
2022-11-10T04:02:46.950Z,76.99
2022-11-10T04:08:45.009Z,76.72
2022-11-10T04:14:43.082Z,76.71
2022-11-10T04:20:22.752Z,76.81
2022-11-10T04:26:24.443Z,76.54
2022-11-10T04:32:04.055Z,76.60
2022-11-10T04:37:43.538Z,76.18
2022-11-10T04:43:23.175Z,76.27
2022-11-10T04:49:02.955Z,76.24
2022-11-10T04:54:42.360Z,76.56
2022-11-10T05:00:21.804Z,76.72
2022-11-10T05:06:01.363Z,76.90
2022-11-10T05:11:40.972Z,76.60
2022-11-10T05:17:20.442Z,76.56
2022-11-10T05:23:18.763Z,76.72
2022-11-10T05:28:58.056Z,76.76
2022-11-10T05:34:37.496Z,76.50
2022-11-10T05:40:16.998Z,76.44
2022-11-10T05:45:56.528Z,76.44
2022-11-10T05:51:35.638Z,76.50
2022-11-10T05:57:14.923Z,76.49
2022-11-10T06:03:20.988Z,76.44
2022-11-10T06:09:00.520Z,76.91
2022-11-10T06:14:39.818Z,78.08
2022-11-10T06:20:19.466Z,76.69
2022-11-10T06:25:58.870Z,76.08
2022-11-10T06:31:38.026Z,76.42
2022-11-10T06:37:17.406Z,76.21
2022-11-10T06:42:57.031Z,76.57
2022-11-10T06:48:36.300Z,76.37
2022-11-10T06:54:15.812Z,76.10
2022-11-10T06:59:55.188Z,76.48
2022-11-10T07:05:35.164Z,75.06
2022-11-10T07:11:14.932Z,75.24
2022-11-10T07:16:54.455Z,76.54
2022-11-10T07:22:33.721Z,75.52
2022-11-10T07:28:13.077Z,75.64
2022-11-10T07:33:54.601Z,75.06
2022-11-10T07:39:34.141Z,74.88
2022-11-10T07:45:13.819Z,74.70
2022-11-10T07:50:53.511Z,75.23
2022-11-10T07:56:32.989Z,75.89
2022-11-10T08:02:12.449Z,76.38
2022-11-10T08:07:52.938Z,76.37
2022-11-10T08:13:32.634Z,76.55
2022-11-10T08:19:12.339Z,76.50
2022-11-10T08:24:51.445Z,76.75
2022-11-10T08:30:30.923Z,76.57
2022-11-10T08:36:10.230Z,76.71
2022-11-10T08:41:49.416Z,76.77
2022-11-10T08:47:28.412Z,76.54
2022-11-10T08:53:12.395Z,76.55
2022-11-10T08:58:53.512Z,76.34
2022-11-10T09:04:32.819Z,76.61
2022-11-10T09:10:13.436Z,76.57
2022-11-10T09:15:52.716Z,76.41
2022-11-10T09:21:31.828Z,76.32
2022-11-10T09:27:11.606Z,76.66
2022-11-10T09:32:57.587Z,76.52
2022-11-10T09:38:37.116Z,76.32
2022-11-10T09:44:22.245Z,75.45
2022-11-10T09:50:02.601Z,75.54
2022-11-10T09:55:45.150Z,75.63
2022-11-10T10:01:30.527Z,75.58
2022-11-10T10:07:15.354Z,75.20
2022-11-10T10:13:01.670Z,75.04
2022-11-10T10:19:07.294Z,75.01
2022-11-10T10:24:48.174Z,74.54
2022-11-10T10:30:27.432Z,74.46
2022-11-10T10:36:15.239Z,74.74
2022-11-10T10:41:54.341Z,74.57
2022-11-10T10:47:40.311Z,74.08
2022-11-10T10:53:28.735Z,74.00
2022-11-10T10:59:17.183Z,73.46
2022-11-10T11:05:15.049Z,73.18
2022-11-10T11:10:54.403Z,73.24
2022-11-10T11:16:45.794Z,73.10
2022-11-10T11:22:37.588Z,72.78
2022-11-10T11:28:20.045Z,72.17
2022-11-10T11:34:02.236Z,72.40
2022-11-10T11:39:57.028Z,72.81
2022-11-10T11:45:42.216Z,72.16
2022-11-10T11:51:27.021Z,71.79
2022-11-10T11:57:25.161Z,71.69
2022-11-10T12:03:10.409Z,71.76
2022-11-10T12:09:09.288Z,71.80
2022-11-10T12:15:04.005Z,71.64
2022-11-10T12:21:02.076Z,71.24
2022-11-10T12:26:47.316Z,70.81
2022-11-10T12:32:29.393Z,70.88
2022-11-10T12:38:13.812Z,71.17
2022-11-10T12:43:56.168Z,71.10
2022-11-10T12:49:36.789Z,71.09
2022-11-10T12:55:16.000Z,71.34
2022-11-10T13:01:04.974Z,71.14
2022-11-10T13:06:49.658Z,70.83
2022-11-10T13:12:29.009Z,70.93
2022-11-10T13:18:22.196Z,70.93
2022-11-10T13:24:02.689Z,70.81
2022-11-10T13:29:48.060Z,70.67
2022-11-10T13:35:30.550Z,70.54
2022-11-10T13:41:14.030Z,71.77
2022-11-10T13:47:04.375Z,70.41
2022-11-10T13:53:01.761Z,70.09
2022-11-10T13:58:43.478Z,69.76
2022-11-10T14:04:41.777Z,69.87
2022-11-10T14:10:29.790Z,70.21
2022-11-10T14:16:19.657Z,70.28
2022-11-10T14:22:01.043Z,70.60
2022-11-10T14:27:40.566Z,70.42
2022-11-10T14:33:21.116Z,70.47
2022-11-10T14:39:00.969Z,70.08
2022-11-10T14:44:40.527Z,70.00
2022-11-10T14:50:32.164Z,70.17
2022-11-10T14:56:17.814Z,70.21
2022-11-10T15:01:59.052Z,69.89
2022-11-10T15:07:38.746Z,69.96
2022-11-10T15:13:27.529Z,70.04
2022-11-10T15:19:25.718Z,70.25
2022-11-10T15:25:18.861Z,70.02
2022-11-10T15:31:09.820Z,70.27
2022-11-10T15:36:49.094Z,70.06
2022-11-10T15:42:28.710Z,69.88
2022-11-10T15:48:15.115Z,69.88
2022-11-10T15:53:54.630Z,70.03
2022-11-10T15:59:34.132Z,69.95
2022-11-10T16:05:13.485Z,70.48
2022-11-10T16:10:53.856Z,70.17
2022-11-10T16:16:33.507Z,70.04
2022-11-10T16:22:13.490Z,70.12
2022-11-10T16:27:52.833Z,69.88
2022-11-10T16:33:32.326Z,69.91
2022-11-10T16:39:15.694Z,69.84
2022-11-10T16:44:55.036Z,69.61
2022-11-10T16:50:35.848Z,69.77
2022-11-10T16:56:16.347Z,69.77
2022-11-10T17:01:57.253Z,69.84
2022-11-10T17:07:37.114Z,70.07
2022-11-10T17:13:16.906Z,69.69
2022-11-10T17:18:57.900Z,69.84
2022-11-10T17:24:36.987Z,69.94
2022-11-10T17:30:16.402Z,69.83
2022-11-10T17:35:56.807Z,70.05
2022-11-10T17:41:36.382Z,69.88
2022-11-10T17:47:15.916Z,69.50
2022-11-10T17:52:55.219Z,69.82
2022-11-10T17:58:36.006Z,69.61
2022-11-10T18:04:15.839Z,69.86
2022-11-10T18:09:55.367Z,69.69
2022-11-10T18:15:34.746Z,69.93
2022-11-10T18:21:14.384Z,69.83
2022-11-10T18:26:53.788Z,70.16
2022-11-10T18:32:33.262Z,69.86
2022-11-10T18:38:13.540Z,70.45
2022-11-10T18:43:53.088Z,70.37
2022-11-10T18:49:33.765Z,70.17
2022-11-10T18:55:13.122Z,70.57
2022-11-10T19:00:52.235Z,70.31
2022-11-10T19:06:31.721Z,69.84
2022-11-10T19:12:12.114Z,69.96
2022-11-10T19:17:51.583Z,70.62
2022-11-10T19:23:30.778Z,71.70
2022-11-10T19:29:10.213Z,70.42
2022-11-10T19:34:49.603Z,70.25
2022-11-10T19:40:29.054Z,70.54
2022-11-10T19:46:10.412Z,70.63
2022-11-10T19:51:50.534Z,70.41
2022-11-10T19:57:29.929Z,70.57
2022-11-10T20:03:11.544Z,70.16
2022-11-10T20:08:51.137Z,70.22
2022-11-10T20:14:30.800Z,70.30
2022-11-10T20:20:11.201Z,69.87
2022-11-10T20:26:00.699Z,69.83
2022-11-10T20:31:40.076Z,70.06
2022-11-10T20:37:19.497Z,70.11
2022-11-10T20:42:58.582Z,70.02
2022-11-10T20:48:38.524Z,70.49
2022-11-10T20:54:17.765Z,71.28
2022-11-10T20:59:57.031Z,70.46
2022-11-10T21:05:36.152Z,70.32
2022-11-10T21:11:35.447Z,70.78
2022-11-10T21:17:14.623Z,69.94
2022-11-10T21:22:56.008Z,70.14
2022-11-10T21:28:38.666Z,70.14
2022-11-10T21:34:18.100Z,70.37
2022-11-10T21:39:57.390Z,70.82
2022-11-10T21:45:37.920Z,70.54
2022-11-10T21:51:19.761Z,69.82
2022-11-10T21:56:59.278Z,69.38
2022-11-10T22:02:38.822Z,69.37
2022-11-10T22:08:21.740Z,69.68
2022-11-10T22:14:20.023Z,69.70
2022-11-10T22:19:59.504Z,70.12
2022-11-10T22:25:39.323Z,70.67
2022-11-10T22:31:18.575Z,70.19
2022-11-10T22:36:59.584Z,70.46
2022-11-10T22:43:08.893Z,71.02
2022-11-10T22:48:48.520Z,71.14
2022-11-10T22:54:27.681Z,71.30
2022-11-10T23:00:08.806Z,71.79
2022-11-10T23:05:55.874Z,71.53
2022-11-10T23:11:36.148Z,71.63
2022-11-10T23:17:15.925Z,71.55
2022-11-10T23:22:56.353Z,71.82
2022-11-10T23:28:36.085Z,71.69
2022-11-10T23:34:15.611Z,71.85
2022-11-10T23:39:55.141Z,71.88
2022-11-10T23:46:04.795Z,71.96
2022-11-10T23:51:33.601Z,72.37
2022-11-10T23:57:12.705Z,72.05
